Time;durP1;ratioP1;P1;durP2;ratioP2;P2;SDS_P1;SDS_P2;PMS_P1;PMS_P2;Temp;Humidity;BMP_temperature;BMP_pressure;BME280_temperature;BME280_humidity;BME280_pressure;Samples;Min_cycle;Max_cycle;Signal;HPM_P1;HPM_P2
2022/05/08 00:00:53;;;;;;;;;17.00;13.00;;;;;17.37;100.00;101499.25;6307985;22;45360;-96
2022/05/08 00:03:19;;;;;;;;;13.00;12.33;;;;;17.38;100.00;101509.88;6308142;22;45368;-96
2022/05/08 00:05:44;;;;;;;;;12.00;11.33;;;;;17.37;100.00;101512.50;6308439;22;47117;-96
2022/05/08 00:08:09;;;;;;;;;12.00;10.00;;;;;17.35;100.00;101508.88;6307865;22;45808;-95
2022/05/08 00:10:35;;;;;;;;;12.67;10.67;;;;;17.30;100.00;101508.75;6308895;22;45394;-96
2022/05/08 00:13:00;;;;;;;;;11.33;8.00;;;;;17.30;100.00;101517.63;6309070;22;45564;-95
2022/05/08 00:15:26;;;;;;;;;10.00;10.00;;;;;17.24;100.00;101508.59;6308847;22;48208;-95
2022/05/08 00:17:51;;;;;;;;;7.67;7.67;;;;;17.18;100.00;101498.69;6309201;22;45398;-96
2022/05/08 00:20:17;;;;;;;;;10.00;9.00;;;;;17.23;100.00;101501.47;6309426;22;45574;-96
2022/05/08 00:22:43;;;;;;;;;12.33;8.67;;;;;17.19;100.00;101503.13;6309049;22;45413;-95
2022/05/08 00:25:09;;;;;;;;;10.67;10.67;;;;;17.14;100.00;101494.09;6309237;22;47017;-96
2022/05/08 00:27:34;;;;;;;;;13.00;9.00;;;;;17.04;100.00;101482.31;6309126;22;45248;-96
2022/05/08 00:29:59;;;;;;;;;12.33;11.00;;;;;17.08;100.00;101500.13;6308816;22;45219;-96
2022/05/08 00:32:25;;;;;;;;;8.67;7.67;;;;;17.10;100.00;101495.75;6309243;22;45197;-95
2022/05/08 00:34:50;;;;;;;;;9.33;6.33;;;;;17.08;100.00;101509.00;6308836;22;46944;-96
2022/05/08 00:37:16;;;;;;;;;11.00;11.00;;;;;17.02;100.00;101481.34;6309810;22;45196;-96
2022/05/08 00:39:43;;;;;;;;;12.67;8.67;;;;;17.02;100.00;101495.53;6309403;22;45224;-96
2022/05/08 00:42:09;;;;;;;;;12.67;10.67;;;;;16.97;100.00;101495.38;6309859;22;45431;-96
2022/05/08 00:44:36;;;;;;;;;10.33;9.33;;;;;16.99;100.00;101498.06;6308251;22;47645;-96
2022/05/08 00:47:02;;;;;;;;;13.00;11.33;;;;;16.96;100.00;101495.31;6309691;22;45399;-95
2022/05/08 00:49:27;;;;;;;;;11.67;10.33;;;;;16.92;100.00;101485.47;6308614;22;45455;-95
2022/05/08 00:51:53;;;;;;;;;10.67;9.00;;;;;16.90;100.00;101484.53;6309134;22;45455;-95
2022/05/08 00:54:18;;;;;;;;;16.33;10.00;;;;;16.84;100.00;101479.94;6309019;22;46894;-96
2022/05/08 00:56:44;;;;;;;;;10.33;8.33;;;;;16.80;100.00;101478.94;6309410;22;45285;-96
2022/05/08 00:59:10;;;;;;;;;10.67;9.33;;;;;16.80;100.00;101480.72;6309101;22;45541;-96
2022/05/08 01:01:35;;;;;;;;;18.33;11.33;;;;;16.79;100.00;101478.91;6309596;22;45267;-95
2022/05/08 01:04:01;;;;;;;;;11.00;10.33;;;;;16.75;100.00;101477.91;6308859;22;48308;-95
2022/05/08 01:06:28;;;;;;;;;14.00;9.33;;;;;16.70;100.00;101483.06;6308910;22;45733;-95
2022/05/08 01:08:54;;;;;;;;;12.33;9.67;;;;;16.61;100.00;101467.78;6308923;22;45493;-96
2022/05/08 01:11:20;;;;;;;;;12.00;10.00;;;;;16.67;100.00;101480.31;6308731;22;45423;-95
2022/05/08 01:13:48;;;;;;;;;13.33;11.33;;;;;16.56;100.00;101464.06;6308248;22;47172;-96
2022/05/08 01:16:15;;;;;;;;;14.33;9.00;;;;;16.62;100.00;101472.22;6308649;22;45416;-96
2022/05/08 01:18:42;;;;;;;;;11.00;10.00;;;;;16.54;100.00;101455.19;6308856;22;45248;-96
2022/05/08 01:21:12;;;;;;;;;10.00;10.00;;;;;16.51;100.00;101455.97;6309122;22;45207;-95
2022/05/08 01:23:38;;;;;;;;;10.00;9.67;;;;;16.50;100.00;101450.63;6307804;22;47289;-95
2022/05/08 01:26:03;;;;;;;;;13.33;11.33;;;;;16.51;100.00;101461.28;6308905;22;45625;-96
2022/05/08 01:28:29;;;;;;;;;14.67;12.67;;;;;16.51;100.00;101457.72;6309341;22;45350;-96
2022/05/08 01:30:55;;;;;;;;;15.00;11.67;;;;;16.47;100.00;101446.13;6308411;22;45287;-96
2022/05/08 01:33:22;;;;;;;;;16.00;14.00;;;;;16.46;100.00;101446.09;6308497;22;47081;-95
2022/05/08 01:35:49;;;;;;;;;13.67;11.00;;;;;16.46;100.00;101448.72;6309038;22;45226;-96
2022/05/08 01:38:20;;;;;;;;;17.00;13.67;;;;;16.33;100.00;101429.78;6308675;22;45429;-95
2022/05/08 01:40:46;;;;;;;;;13.67;12.00;;;;;16.37;100.00;101409.56;6308408;22;45128;-96
2022/05/08 01:43:12;;;;;;;;;15.33;13.33;;;;;16.38;100.00;101436.13;6308214;22;47166;-96
2022/05/08 01:45:39;;;;;;;;;14.00;12.33;;;;;16.41;100.00;101443.28;6308712;22;45584;-95
2022/05/08 01:48:22;;;;;;;;;18.67;13.33;;;;;16.30;100.00;101424.38;6308585;22;45477;-95
2022/05/08 01:50:53;;;;;;;;;13.00;13.00;;;;;16.26;100.00;101426.03;6309081;22;45315;-96
2022/05/08 01:53:24;;;;;;;;;12.67;11.33;;;;;16.24;100.00;101422.44;6307694;22;48096;-95
2022/05/08 01:55:53;;;;;;;;;12.00;12.00;;;;;16.29;100.00;101425.22;6307966;22;45314;-95
2022/05/08 01:58:19;;;;;;;;;19.67;14.00;;;;;16.15;100.00;101403.59;6308646;22;45302;-96
2022/05/08 02:00:45;;;;;;;;;15.33;12.00;;;;;16.25;100.00;101436.56;6308714;22;45206;-96
2022/05/08 02:03:12;;;;;;;;;14.00;11.67;;;;;16.10;100.00;101397.25;6307990;22;47408;-96
2022/05/08 02:05:40;;;;;;;;;15.00;13.67;;;;;16.13;100.00;101413.25;6308105;22;45627;-95
2022/05/08 02:08:06;;;;;;;;;14.00;13.00;;;;;16.08;100.00;101408.69;6308191;22;45304;-95
2022/05/08 02:10:32;;;;;;;;;15.33;15.00;;;;;16.02;100.00;101391.66;6308091;22;45688;-96
2022/05/08 02:12:57;;;;;;;;;19.33;14.33;;;;;16.07;100.00;101403.34;6307957;22;47240;-95
2022/05/08 02:15:29;;;;;;;;;14.33;12.67;;;;;16.03;100.00;101407.59;6308375;22;45766;-96
2022/05/08 02:17:54;;;;;;;;;11.33;11.00;;;;;16.00;100.00;101396.94;6308890;22;45426;-96
2022/05/08 02:20:20;;;;;;;;;16.33;13.33;;;;;15.98;100.00;101388.91;6308920;22;45455;-96
2022/05/08 02:22:45;;;;;;;;;20.33;15.33;;;;;15.90;100.00;101371.00;6307964;22;47028;-96
2022/05/08 02:25:10;;;;;;;;;17.50;13.75;;;;;15.93;100.00;101376.34;6308031;22;45752;-96
2022/05/08 02:27:38;;;;;;;;;15.75;15.25;;;;;15.89;100.00;101375.38;6308903;22;45628;-95
2022/05/08 02:30:10;;;;;;;;;18.33;14.67;;;;;15.90;100.00;101368.34;6309098;22;45321;-96
2022/05/08 02:32:37;;;;;;;;;14.67;14.00;;;;;15.87;100.00;101377.06;6308968;22;48313;-96
2022/05/08 02:35:07;;;;;;;;;14.75;13.25;;;;;15.84;100.00;101366.38;6307968;22;45376;-95
2022/05/08 02:37:33;;;;;;;;;16.25;15.25;;;;;15.83;100.00;101364.56;6308674;22;45281;-96
2022/05/08 02:39:58;;;;;;;;;13.75;10.25;;;;;15.92;100.00;101378.13;6308542;22;45482;-96
2022/05/08 02:42:24;;;;;;;;;18.00;14.50;;;;;15.77;100.00;101349.38;6308700;22;48275;-96
2022/05/08 02:44:49;;;;;;;;;16.75;16.25;;;;;15.80;100.00;101360.06;6308883;22;45260;-96
2022/05/08 02:47:15;;;;;;;;;20.25;15.75;;;;;15.74;100.00;101366.09;6308883;22;45482;-95
2022/05/08 02:49:40;;;;;;;;;21.75;16.50;;;;;15.78;100.00;101359.13;6309142;22;45437;-95
2022/05/08 02:52:06;;;;;;;;;22.75;17.50;;;;;15.74;100.00;101367.81;6308395;22;46921;-94
2022/05/08 02:54:32;;;;;;;;;22.75;16.75;;;;;15.71;100.00;101359.78;6308064;22;45518;-96
2022/05/08 02:59:41;;;;;;;;;28.00;22.00;;;;;15.67;100.00;101350.81;6336515;22;45324;-94
2022/05/08 03:02:07;;;;;;;;;24.00;21.00;;;;;15.59;100.00;101318.78;6308729;22;47069;-96
2022/05/08 03:04:32;;;;;;;;;22.75;18.25;;;;;15.58;100.00;101327.59;6308029;22;45295;-95
2022/05/08 03:06:58;;;;;;;;;28.50;24.50;;;;;15.55;100.00;101322.19;6308736;22;45363;-96
2022/05/08 03:09:23;;;;;;;;;29.75;20.75;;;;;15.49;100.00;101311.41;6307696;22;45448;-95
2022/05/08 03:11:49;;;;;;;;;23.50;21.00;;;;;15.55;100.00;101321.28;6308420;22;46758;-96
2022/05/08 03:14:14;;;;;;;;;21.50;21.50;;;;;15.48;100.00;101310.53;6308346;22;45285;-96
2022/05/08 03:16:41;;;;;;;;;30.25;21.50;;;;;15.46;100.00;101300.72;6308530;22;45382;-95
2022/05/08 03:19:06;;;;;;;;;23.00;22.00;;;;;15.41;100.00;101298.81;6308035;22;45519;-95
2022/05/08 03:21:34;;;;;;;;;28.75;22.00;;;;;15.38;100.00;101282.88;6308293;22;48031;-96
2022/05/08 03:23:59;;;;;;;;;18.75;16.25;;;;;15.43;100.00;101295.34;6307879;22;45717;-95
2022/05/08 03:26:28;;;;;;;;;23.50;22.50;;;;;15.45;100.00;101304.22;6308282;22;45391;-95
2022/05/08 03:28:53;;;;;;;;;23.75;21.00;;;;;15.31;100.00;101264.94;6308663;22;45437;-94
2022/05/08 03:31:20;;;;;;;;;27.75;23.50;;;;;15.34;100.00;101272.09;6307695;22;47222;-96
2022/05/08 03:33:46;;;;;;;;;25.50;23.50;;;;;15.37;100.00;101265.19;6307751;22;45467;-96
2022/05/08 03:36:11;;;;;;;;;32.25;24.25;;;;;15.27;100.00;101240.16;6308176;22;45187;-96
2022/05/08 03:38:44;;;;;;;;;31.75;27.00;;;;;15.28;100.00;101262.22;6308076;22;45295;-96
2022/05/08 03:41:09;;;;;;;;;27.50;25.25;;;;;15.28;100.00;101263.09;6307805;22;47520;-95
2022/05/08 03:43:36;;;;;;;;;27.75;24.75;;;;;15.33;100.00;101262.38;6307768;22;45179;-96
2022/05/08 03:46:02;;;;;;;;;26.25;22.00;;;;;15.36;100.00;101273.06;6307024;22;45609;-96
2022/05/08 03:48:27;;;;;;;;;30.75;27.50;;;;;15.21;100.00;101241.69;6308352;22;45654;-95
2022/05/08 03:50:53;;;;;;;;;32.00;27.00;;;;;15.27;100.00;101255.13;6307792;22;47370;-95
2022/05/08 03:53:18;;;;;;;;;26.75;22.00;;;;;15.33;100.00;101258.00;6307207;22;45599;-96
2022/05/08 03:55:44;;;;;;;;;31.50;27.75;;;;;15.27;100.00;101245.47;6308485;22;45351;-95
2022/05/08 03:58:09;;;;;;;;;30.75;28.00;;;;;15.27;100.00;101237.53;6307700;22;45996;-95
2022/05/08 04:00:35;;;;;;;;;35.25;27.25;;;;;15.25;100.00;101230.38;6308380;22;47977;-95
2022/05/08 04:03:01;;;;;;;;;29.25;24.25;;;;;15.38;100.00;101252.84;6308234;22;45423;-96
2022/05/08 04:05:26;;;;;;;;;31.75;27.00;;;;;15.33;100.00;101239.47;6308296;22;45428;-96
2022/05/08 04:07:52;;;;;;;;;29.50;25.50;;;;;15.35;100.00;101234.22;6307310;22;45345;-95
2022/05/08 04:10:17;;;;;;;;;35.25;29.50;;;;;15.38;100.00;101235.25;6308141;22;48647;-96
2022/05/08 04:12:43;;;;;;;;;33.50;28.25;;;;;15.41;100.00;101234.44;6307454;22;45398;-95
2022/05/08 04:18:03;;;;;;;;;32.50;31.00;;;;;15.46;100.00;101247.81;6208544;22;45779;-95
2022/05/08 04:20:29;;;;;;;;;34.25;26.00;;;;;15.38;100.00;101219.38;6208432;22;48311;-95
2022/05/08 04:25:38;;;;;;;;;36.00;31.00;;;;;15.40;100.00;101236.19;6209091;22;45842;-95
2022/05/08 04:28:07;;;;;;;;;30.00;24.50;;;;;15.41;100.00;101221.22;6208585;22;45362;-93
2022/05/08 04:30:33;;;;;;;;;36.00;29.50;;;;;15.43;100.00;101242.44;6207131;22;47128;-95
2022/05/08 04:32:58;;;;;;;;;26.75;23.50;;;;;15.43;100.00;101237.13;6182985;22;45623;-96
2022/05/08 04:35:24;;;;;;;;;29.25;26.75;;;;;15.48;100.00;101233.81;6208283;22;45690;-95
2022/05/08 04:37:49;;;;;;;;;32.25;27.00;;;;;15.47;100.00;101241.66;6208213;22;45527;-96
2022/05/08 04:40:15;;;;;;;;;33.25;29.75;;;;;15.53;100.00;101237.50;6208585;22;48378;-96
2022/05/08 04:42:55;;;;;;;;;35.50;29.50;;;;;15.53;100.00;101250.72;6182143;22;45781;-95
2022/05/08 04:45:21;;;;;;;;;40.00;33.00;;;;;15.49;100.00;101243.50;6183258;22;45301;-95
2022/05/08 04:47:46;;;;;;;;;33.75;28.75;;;;;15.47;100.00;101245.22;6208517;22;45417;-95
2022/05/08 04:50:11;;;;;;;;;36.00;30.75;;;;;15.46;100.00;101235.47;6183590;22;48251;-96
2022/05/08 04:52:37;;;;;;;;;41.50;31.50;;;;;15.43;100.00;101237.13;6183366;22;45378;-96
2022/05/08 04:55:03;;;;;;;;;32.75;30.75;;;;;15.49;100.00;101237.31;6255548;22;45399;-96
2022/05/08 04:57:30;;;;;;;;;33.50;32.00;;;;;15.48;100.00;101239.09;6308415;22;45291;-94
2022/05/08 04:59:56;;;;;;;;;40.00;31.75;;;;;15.51;100.00;101241.81;6308730;22;47037;-95
2022/05/08 05:02:21;;;;;;;;;34.00;26.75;;;;;15.56;100.00;101252.56;6308897;22;45325;-94
2022/05/08 05:04:50;;;;;;;;;31.75;29.50;;;;;15.61;100.00;101263.31;6308562;22;45313;-95
2022/05/08 05:07:16;;;;;;;;;29.25;28.25;;;;;15.58;100.00;101261.44;6309188;22;45229;-95
2022/05/08 05:09:41;;;;;;;;;39.00;31.25;;;;;15.64;100.00;101266.94;6310082;22;47727;-95
2022/05/08 05:12:07;;;;;;;;;30.00;25.75;;;;;15.69;100.00;101266.19;6309090;22;45630;-95
2022/05/08 05:14:32;;;;;;;;;35.75;31.75;;;;;15.67;100.00;101270.56;6309601;22;45292;-93
2022/05/08 05:17:00;;;;;;;;;40.25;30.25;;;;;15.72;100.00;101266.31;6310798;22;45341;-95
2022/05/08 05:19:26;;;;;;;;;39.50;31.75;;;;;15.67;100.00;101274.06;6309365;22;47526;-95
2022/05/08 05:21:51;;;;;;;;;33.75;28.25;;;;;15.75;100.00;101306.09;6309457;22;45379;-96
2022/05/08 05:24:17;;;;;;;;;32.75;27.75;;;;;15.67;100.00;101284.66;6310053;22;45326;-96
2022/05/08 05:26:42;;;;;;;;;32.50;28.25;;;;;15.79;100.00;101312.38;6309431;22;45310;-95
2022/05/08 05:29:08;;;;;;;;;31.50;27.75;;;;;15.72;100.00;101306.00;6308733;22;46790;-96
2022/05/08 05:31:34;;;;;;;;;34.25;29.75;;;;;15.81;100.00;101315.97;6308558;22;45768;-96
2022/05/08 05:33:59;;;;;;;;;39.25;32.50;;;;;15.82;100.00;101318.66;6309136;22;45310;-95
2022/05/08 05:36:24;;;;;;;;;30.00;26.75;;;;;15.78;100.00;101285.00;6308843;22;45253;-95
2022/05/08 05:38:50;;;;;;;;;40.25;33.25;;;;;15.80;100.00;101315.06;6309160;22;48423;-95
2022/05/08 05:41:15;;;;;;;;;38.50;29.50;;;;;15.75;100.00;101306.09;6308891;22;45546;-95
2022/05/08 05:43:41;;;;;;;;;34.00;28.75;;;;;15.75;100.00;101309.63;6309051;22;45241;-95
2022/05/08 05:48:50;;;;;;;;;34.25;29.00;;;;;15.68;100.00;101306.72;6336649;22;45419;-95
2022/05/08 05:51:15;;;;;;;;;30.50;27.25;;;;;15.66;100.00;101319.03;6309042;22;45273;-96
2022/05/08 05:53:40;;;;;;;;;38.50;31.75;;;;;15.63;100.00;101310.13;6307979;22;45458;-82
2022/05/08 05:56:06;;;;;;;;;29.50;25.00;;;;;15.72;100.00;101313.94;6332530;22;45246;-81
2022/05/08 05:58:31;;;;;;;;;38.75;30.00;;;;;15.68;100.00;101314.66;6332967;22;45667;-82
2022/05/08 06:00:57;;;;;;;;;39.00;30.75;;;;;15.73;100.00;101321.91;6333028;22;45272;-82
2022/05/08 06:03:22;;;;;;;;;25.25;24.25;;;;;15.78;100.00;101314.13;6332896;22;45393;-82
2022/05/08 06:05:47;;;;;;;;;34.25;28.50;;;;;15.81;100.00;101332.75;6333698;22;45325;-81
2022/05/08 06:08:13;;;;;;;;;33.50;25.75;;;;;15.84;100.00;101335.53;6332075;22;45300;-82
2022/05/08 06:10:38;;;;;;;;;27.75;27.00;;;;;15.87;100.00;101332.06;6333043;22;45374;-82
2022/05/08 06:13:03;;;;;;;;;35.50;28.75;;;;;15.89;100.00;101334.75;6332561;22;49256;-82
2022/05/08 06:15:29;;;;;;;;;22.25;21.00;;;;;15.93;100.00;101344.59;6304634;22;45806;-82
2022/05/08 06:17:55;;;;;;;;;35.50;29.25;;;;;15.95;100.00;101340.28;6332692;22;46270;-82
2022/05/08 06:20:20;;;;;;;;;36.25;28.25;;;;;15.99;100.00;101355.41;6223408;22;45511;-82
2022/05/08 06:22:46;;;;;;;;;28.00;24.50;;;;;16.05;100.00;101342.41;6311113;22;45545;-82
2022/05/08 06:25:12;;;;;;;;;34.75;26.50;;;;;16.06;100.00;101351.22;6333279;22;45332;-82
2022/05/08 06:27:38;;;;;;;;;33.50;28.25;;;;;16.06;100.00;101351.22;6332415;22;45708;-82
2022/05/08 06:30:03;;;;;;;;;36.75;28.25;;;;;16.10;100.00;101352.22;6332247;22;45387;-82
2022/05/08 06:32:29;;;;;;;;;40.00;31.75;;;;;16.11;100.00;101346.06;6331873;22;45348;-82
2022/05/08 06:34:54;;;;;;;;;35.50;29.75;;;;;16.18;100.00;101356.03;6333617;22;45291;-82
2022/05/08 06:37:19;;;;;;;;;35.25;26.00;;;;;16.21;100.00;101353.47;6331908;22;45487;-82
2022/05/08 06:39:44;;;;;;;;;34.00;26.25;;;;;16.24;100.00;101344.72;6332303;22;48482;-82
2022/05/08 06:42:10;;;;;;;;;29.50;27.00;;;;;16.28;100.00;101379.31;6333270;22;45309;-81
2022/05/08 06:44:35;;;;;;;;;26.25;24.25;;;;;16.33;100.00;101363.56;6331042;22;45430;-82
2022/05/08 06:47:01;;;;;;;;;36.75;28.00;;;;;16.37;100.00;101362.78;6332531;22;45205;-81
2022/05/08 06:49:26;;;;;;;;;31.25;26.25;;;;;16.41;100.00;101377.06;6304712;22;45479;-82
2022/05/08 06:51:51;;;;;;;;;28.75;26.50;;;;;16.49;100.00;101377.28;6303350;22;54478;-86
2022/05/08 06:54:17;;;;;;;;;28.75;25.25;;;;;16.55;100.00;101379.22;6303991;22;45445;-83
2022/05/08 06:56:42;;;;;;;;;32.00;24.00;;;;;16.57;100.00;101382.84;6304037;22;45868;-83
2022/05/08 07:01:53;;;;;;;;;30.00;27.75;;;;;16.68;100.00;101393.72;6332593;22;45404;-84
2022/05/08 07:04:18;;;;;;;;;34.50;29.75;;;;;16.71;100.00;101399.13;6304965;22;45341;-83
2022/05/08 07:06:44;;;;;;;;;30.75;25.50;;;;;16.71;100.00;101410.66;6332218;22;46073;-82
2022/05/08 07:09:09;;;;;;;;;30.75;22.50;;;;;16.73;100.00;101405.38;6304120;22;45338;-83
2022/05/08 07:11:37;;;;;;;;;32.50;25.25;;;;;16.69;100.00;101409.69;6332107;22;45345;-83
2022/05/08 07:14:03;;;;;;;;;31.00;23.00;;;;;16.71;100.00;101409.75;6303733;22;45490;-83
2022/05/08 07:16:28;;;;;;;;;30.00;27.25;;;;;16.67;100.00;101414.06;6327071;22;45325;-83
2022/05/08 07:18:53;;;;;;;;;32.75;28.75;;;;;16.69;100.00;101422.06;6332209;22;45317;-82
2022/05/08 07:21:19;;;;;;;;;34.50;30.00;;;;;16.72;100.00;101424.81;6331818;22;45466;-83
2022/05/08 07:23:46;;;;;;;;;34.50;30.00;;;;;16.74;100.00;101420.44;6332032;22;45231;-83
2022/05/08 07:26:12;;;;;;;;;26.50;23.50;;;;;16.75;100.00;101419.59;6331176;22;45512;-82
2022/05/08 07:28:37;;;;;;;;;33.75;29.75;;;;;16.79;100.00;101408.22;6331971;22;45505;-83
2022/05/08 07:31:03;;;;;;;;;37.25;27.75;;;;;16.84;100.00;101416.31;6329092;22;48509;-83
2022/05/08 07:33:30;;;;;;;;;36.75;30.00;;;;;16.90;100.00;101427.13;6332512;22;45245;-83
2022/05/08 07:36:13;;;;;;;;;34.50;30.25;;;;;16.96;100.00;101429.03;6331709;22;45526;-83
2022/05/08 07:38:47;;;;;;;;;38.75;32.25;;;;;17.00;100.00;101430.03;6331731;22;45657;-82
2022/05/08 07:41:15;;;;;;;;;31.75;26.50;;;;;17.05;100.00;101431.06;6303064;22;45317;-83
2022/05/08 07:43:42;;;;;;;;;39.50;28.25;;;;;17.10;100.00;101453.31;6326593;22;45494;-82
2022/05/08 07:46:07;;;;;;;;;37.75;27.00;;;;;17.16;100.00;101455.31;6330179;22;45589;-83
2022/05/08 07:48:33;;;;;;;;;33.50;27.75;;;;;17.16;100.00;101456.16;6302445;22;48049;-81
2022/05/08 07:51:00;;;;;;;;;28.25;26.25;;;;;17.18;100.00;101458.88;6302899;22;45332;-84
2022/05/08 07:53:27;;;;;;;;;39.00;29.75;;;;;17.19;100.00;101464.22;6330760;22;45266;-84
2022/05/08 07:55:53;;;;;;;;;28.75;25.00;;;;;17.18;100.00;101466.84;6330460;22;46490;-84
2022/05/08 07:58:19;;;;;;;;;28.25;24.50;;;;;17.18;100.00;101474.81;6330414;22;45705;-84
2022/05/08 08:00:45;;;;;;;;;37.50;28.50;;;;;17.19;100.00;101479.25;6331303;22;45415;-84
2022/05/08 08:03:10;;;;;;;;;39.50;29.50;;;;;17.14;100.00;101480.81;6331153;22;45469;-84
2022/05/08 08:05:35;;;;;;;;;35.25;32.00;;;;;17.13;100.00;101489.66;6331700;22;45529;-82
2022/05/08 08:08:01;;;;;;;;;38.50;31.00;;;;;17.17;100.00;101483.59;6329935;22;45482;-84
2022/05/08 08:10:26;;;;;;;;;37.75;28.50;;;;;17.19;100.00;101480.16;6331323;22;45338;-83
2022/05/08 08:12:52;;;;;;;;;34.25;25.00;;;;;17.24;100.00;101480.28;6330089;22;45270;-85
2022/05/08 08:15:17;;;;;;;;;31.25;29.50;;;;;17.32;100.00;101480.50;6328125;22;45306;-84
2022/05/08 08:17:42;;;;;;;;;36.50;32.50;;;;;17.38;100.00;101486.00;6329903;22;45457;-84
2022/05/08 08:20:08;;;;;;;;;31.50;27.50;;;;;17.46;100.00;101483.56;6330165;22;45721;-84
2022/05/08 08:22:34;;;;;;;;;29.00;27.00;;;;;17.55;100.00;101488.22;6302355;22;45659;-84
2022/05/08 08:25:00;;;;;;;;;25.00;24.25;;;;;17.61;100.00;101491.06;6330467;22;46368;-84
2022/05/08 08:27:26;;;;;;;;;38.25;30.75;;;;;17.67;100.00;101506.28;6215226;22;45309;-84
2022/05/08 08:29:52;;;;;;;;;30.25;26.25;;;;;17.73;100.00;101503.78;6316654;22;45313;-84
2022/05/08 08:32:18;;;;;;;;;40.00;31.50;;;;;17.78;100.00;101511.84;6332133;22;45294;-82
2022/05/08 08:34:43;;;;;;;;;34.00;30.25;;;;;17.79;100.00;101495.06;6332381;22;46399;-82
2022/05/08 08:37:08;;;;;;;;;33.00;29.00;;;;;17.86;100.00;101496.13;6332792;22;45308;-85
2022/05/08 08:39:34;;;;;;;;;35.25;29.25;;;;;17.90;100.00;101523.69;6332843;22;45255;-82
2022/05/08 08:42:21;;;;;;;;;33.00;26.25;;;;;17.91;100.00;101520.19;6334309;22;45252;-84
2022/05/08 08:47:44;;;;;;;;;35.75;29.75;;;;;17.94;100.00;101512.28;6334310;22;45354;-83
2022/05/08 08:50:11;;;;;;;;;30.25;30.00;;;;;18.02;100.00;101523.09;6259140;22;45503;-84
2022/05/08 08:52:36;;;;;;;;;34.25;27.25;;;;;18.09;100.00;101525.97;6179978;22;45487;-83
2022/05/08 08:55:05;;;;;;;;;36.75;31.00;;;;;18.18;100.00;101519.13;6329871;22;46182;-83
2022/05/08 08:57:30;;;;;;;;;39.50;32.50;;;;;18.26;100.00;101530.88;6332302;22;45787;-84
2022/05/08 08:59:55;;;;;;;;;35.50;31.50;;;;;18.31;100.00;101541.63;6304385;22;45329;-84
2022/05/08 09:02:21;;;;;;;;;32.50;26.00;;;;;18.37;100.00;101540.88;6331169;22;45578;-84
2022/05/08 09:04:49;;;;;;;;;35.75;26.75;;;;;18.46;100.00;101545.53;6331963;22;46832;-84
2022/05/08 09:07:33;;;;;;;;;38.25;30.25;;;;;18.57;100.00;101560.00;6306140;22;45508;-84
2022/05/08 09:10:08;;;;;;;;;40.00;28.50;;;;;18.63;100.00;101565.44;6305340;22;45385;-84
2022/05/08 09:12:34;;;;;;;;;26.00;26.00;;;;;18.65;100.00;101574.41;6304977;22;45395;-84
2022/05/08 09:14:59;;;;;;;;;29.25;26.75;;;;;18.62;100.00;101573.41;6333992;22;46159;-83
2022/05/08 09:17:42;;;;;;;;;28.75;25.75;;;;;18.66;100.00;101580.59;6304831;22;45323;-84
2022/05/08 09:20:23;;;;;;;;;38.00;26.75;;;;;18.84;100.00;101568.59;6333900;22;45752;-84
2022/05/08 09:23:00;;;;;;;;;37.25;31.00;;;;;18.95;100.00;101576.84;6332710;22;45558;-84
2022/05/08 09:26:00;;;;;;;;;33.50;29.25;;;;;19.07;100.00;101589.56;6329658;22;45320;-84
2022/05/08 09:28:37;;;;;;;;;32.00;27.50;;;;;19.14;100.00;101593.25;6334801;22;45483;-81
2022/05/08 09:31:05;;;;;;;;;35.25;32.00;;;;;19.19;100.00;101613.81;6332928;22;45368;-85
2022/05/08 09:33:36;;;;;;;;;33.75;30.00;;;;;19.21;100.00;101613.84;6332943;22;45328;-84
2022/05/08 09:36:16;;;;;;;;;30.50;26.00;;;;;19.24;100.00;101613.03;6332417;22;45342;-84
2022/05/08 09:38:53;;;;;;;;;29.00;26.75;;;;;19.31;100.00;101617.63;6332610;22;45367;-84
2022/05/08 09:41:20;;;;;;;;;38.00;31.75;;;;;19.40;100.00;101611.63;6332700;22;45460;-84
2022/05/08 09:43:46;;;;;;;;;40.50;32.00;;;;;19.57;100.00;101621.72;6333133;22;45216;-84
2022/05/08 09:46:12;;;;;;;;;34.50;29.25;;;;;19.69;100.00;101629.09;6333035;22;45350;-83
2022/05/08 09:48:37;;;;;;;;;33.50;27.75;;;;;19.81;100.00;101628.44;6333337;22;45807;-84
2022/05/08 09:51:08;;;;;;;;;37.75;30.25;;;;;19.91;100.00;101633.09;6333215;22;45650;-84
2022/05/08 09:53:36;;;;;;;;;32.25;28.00;;;;;20.01;100.00;101631.53;6332734;22;45454;-84
2022/05/08 09:56:04;;;;;;;;;41.75;32.00;;;;;20.20;100.00;101642.59;6308587;22;47143;-83
2022/05/08 09:58:31;;;;;;;;;37.75;31.50;;;;;20.34;100.00;101641.94;6308675;22;45344;-84
2022/05/08 10:00:57;;;;;;;;;39.50;31.50;;;;;20.55;100.00;101633.44;6332732;22;45557;-83
2022/05/08 10:03:26;;;;;;;;;35.25;29.25;;;;;20.71;100.00;101639.06;6304491;22;45421;-90
2022/05/08 10:05:52;;;;;;;;;31.00;26.50;;;;;20.89;100.00;101657.16;6305540;22;47873;-85
2022/05/08 10:08:26;;;;;;;;;38.00;28.25;;;;;21.21;100.00;101655.88;6334535;22;45429;-85
2022/05/08 10:14:00;;;;;;;;;34.50;28.75;;;;;21.68;100.00;101677.03;6334264;22;45397;-85
2022/05/08 10:16:45;;;;;;;;;41.25;32.50;;;;;21.87;100.00;101691.59;6303927;22;47421;-85
2022/05/08 10:19:20;;;;;;;;;41.25;32.75;;;;;22.12;100.00;101694.56;6332952;22;45724;-84
2022/05/08 10:21:57;;;;;;;;;32.75;24.75;;;;;22.34;100.00;101708.19;6332596;22;45372;-84
2022/05/08 10:24:40;;;;;;;;;37.00;31.00;;;;;22.37;100.00;101726.06;6333812;22;45320;-85
2022/05/08 10:27:16;;;;;;;;;42.25;35.75;;;;;22.55;100.00;101717.31;6303558;22;47237;-85
2022/05/08 10:29:50;;;;;;;;;36.25;31.50;;;;;22.88;100.00;101723.03;6332457;22;45502;-85
2022/05/08 10:32:28;;;;;;;;;33.50;31.50;;;;;23.19;100.00;101730.44;6303789;22;45495;-86
2022/05/08 10:35:23;;;;;;;;;43.00;33.75;;;;;23.61;100.00;101729.88;6332447;22;45309;-85
2022/05/08 10:37:52;;;;;;;;;34.25;31.75;;;;;24.08;100.00;101747.09;6331002;22;45589;-85
2022/05/08 10:40:23;;;;;;;;;29.50;27.50;;;;;24.19;100.00;101775.75;6332380;22;45464;-85
2022/05/08 10:42:48;;;;;;;;;39.75;32.00;;;;;24.33;100.00;101776.75;6302722;22;45420;-86
2022/05/08 10:45:36;;;;;;;;;36.75;30.00;;;;;24.33;100.00;101798.19;6331958;22;45328;-87
2022/05/08 10:48:17;;;;;;;;;45.25;38.25;;;;;26.78;100.00;101721.75;6304181;22;47331;-84
2022/05/08 10:50:50;;;;;;;;;37.25;31.25;;;;;29.87;100.00;101769.03;6305042;22;45336;-85
2022/05/08 10:53:42;;;;;;;;;37.50;31.25;;;;;32.81;100.00;101845.78;6301195;22;45782;-85
2022/05/08 10:56:10;;;;;;;;;32.50;29.75;;;;;35.08;100.00;101912.25;6327114;22;45711;-84
2022/05/08 10:58:41;;;;;;;;;35.50;29.00;;;;;36.24;100.00;101983.91;6332581;22;46288;-85
2022/05/08 11:01:09;;;;;;;;;36.75;32.00;;;;;38.05;99.47;102017.34;6332970;22;45422;-85
2022/05/08 11:03:35;;;;;;;;;34.75;30.00;;;;;39.26;93.09;102057.53;6333265;22;45432;-85
2022/05/08 11:06:03;;;;;;;;;34.00;30.75;;;;;40.47;89.21;102077.13;6335347;22;45295;-84
2022/05/08 11:08:31;;;;;;;;;34.75;29.75;;;;;40.37;82.11;102118.94;6305427;22;47337;-82
2022/05/08 11:11:10;;;;;;;;;29.67;27.67;;;;;39.43;76.79;102154.56;6304135;22;45674;-83
2022/05/08 11:13:53;;;;;;;;;31.75;28.00;;;;;39.18;77.46;102159.53;6304410;22;45380;-82
2022/05/08 11:16:42;;;;;;;;;34.33;29.00;;;;;38.74;74.51;102169.16;6211770;22;58406;-82
2022/05/08 11:19:07;;;;;;;;;32.75;29.00;;;;;37.14;73.52;102166.78;6256902;22;46323;-82
2022/05/08 11:21:34;;;;;;;;;32.67;29.67;;;;;35.70;73.29;102168.19;6303839;22;45753;-83
2022/05/08 11:24:00;;;;;;;;;32.00;28.00;;;;;35.53;74.29;102158.84;6332768;22;45704;-82